createdAt,value
2022-12-15T00:00:53.760Z,0.19
2022-12-15T00:03:21.061Z,0.52
2022-12-15T00:05:49.770Z,0.56
2022-12-15T00:08:17.467Z,0.30
2022-12-15T00:10:44.221Z,0.23
2022-12-15T00:13:11.621Z,0.28
2022-12-15T00:15:38.570Z,0.20
2022-12-15T00:18:06.867Z,0.11
2022-12-15T00:20:33.734Z,0.07
2022-12-15T00:23:09.450Z,0.08
2022-12-15T00:25:36.278Z,0.09
2022-12-15T00:28:03.773Z,0.09
2022-12-15T00:30:30.588Z,0.24
2022-12-15T00:32:57.548Z,0.17
2022-12-15T00:35:24.288Z,0.09
2022-12-15T00:37:51.429Z,0.10
2022-12-15T00:40:19.934Z,0.05
2022-12-15T00:42:47.750Z,0.09
2022-12-15T00:45:16.777Z,0.09
2022-12-15T00:47:43.751Z,0.05
2022-12-15T00:50:11.891Z,0.07
2022-12-15T00:52:38.712Z,0.09
2022-12-15T00:55:05.874Z,0.14
2022-12-15T00:57:34.050Z,0.19
2022-12-15T01:00:01.089Z,0.10
2022-12-15T01:02:28.335Z,0.27
2022-12-15T01:04:55.394Z,0.15
2022-12-15T01:07:22.496Z,0.12
2022-12-15T01:09:50.323Z,0.11
2022-12-15T01:12:17.106Z,0.20
2022-12-15T01:14:45.293Z,0.15
2022-12-15T01:17:12.475Z,0.11
2022-12-15T01:19:39.230Z,0.31
2022-12-15T01:22:08.376Z,0.27
2022-12-15T01:24:35.453Z,0.24
2022-12-15T01:27:02.574Z,0.39
2022-12-15T01:29:32.720Z,0.78
2022-12-15T01:32:02.540Z,0.56
2022-12-15T01:34:30.855Z,0.30
2022-12-15T01:36:58.129Z,0.22
2022-12-15T01:39:24.905Z,0.12
2022-12-15T01:41:53.145Z,0.11
2022-12-15T01:44:22.950Z,0.11
2022-12-15T01:46:56.046Z,0.14
2022-12-15T01:49:28.298Z,0.08
2022-12-15T01:52:01.629Z,0.14
2022-12-15T01:54:32.815Z,0.12
2022-12-15T01:57:03.419Z,0.45
2022-12-15T01:59:34.130Z,0.29
2022-12-15T02:02:03.005Z,0.35
2022-12-15T02:04:32.349Z,0.28
2022-12-15T02:06:59.209Z,0.20
2022-12-15T02:09:27.921Z,0.35
2022-12-15T02:12:08.901Z,0.28
2022-12-15T02:14:53.912Z,0.49
2022-12-15T02:17:32.285Z,0.46
2022-12-15T02:20:25.923Z,0.43
2022-12-15T02:23:26.866Z,0.32
2022-12-15T02:26:19.066Z,0.26
2022-12-15T02:28:58.934Z,0.44
2022-12-15T02:31:32.577Z,0.30
2022-12-15T02:34:05.818Z,0.26
2022-12-15T02:36:38.152Z,0.24
2022-12-15T02:39:07.333Z,0.13
2022-12-15T02:41:36.798Z,0.38
2022-12-15T02:44:09.333Z,1.83
2022-12-15T02:46:48.297Z,2.37
2022-12-15T02:49:26.229Z,1.58
2022-12-15T02:52:05.914Z,1.07
2022-12-15T02:55:02.396Z,0.76
2022-12-15T02:57:39.447Z,0.68
2022-12-15T03:00:10.667Z,0.85
2022-12-15T03:02:42.669Z,0.59
2022-12-15T03:05:12.749Z,0.39
2022-12-15T03:07:39.619Z,0.32
2022-12-15T03:10:09.986Z,0.34
2022-12-15T03:12:36.829Z,0.62
2022-12-15T03:15:04.341Z,0.57
2022-12-15T03:17:31.236Z,0.67
2022-12-15T03:19:59.429Z,1.17
2022-12-15T03:22:27.546Z,4.70
2022-12-15T03:24:54.406Z,2.62
2022-12-15T03:27:22.340Z,1.44
2022-12-15T03:29:50.509Z,1.36
2022-12-15T03:32:17.625Z,1.53
2022-12-15T03:34:44.800Z,3.30
2022-12-15T03:37:16.813Z,3.12
2022-12-15T03:39:45.050Z,3.47
2022-12-15T03:42:12.081Z,4.22
2022-12-15T03:44:38.842Z,2.96
2022-12-15T03:47:06.290Z,2.80
2022-12-15T03:49:33.470Z,1.85
2022-12-15T03:52:00.677Z,3.34
2022-12-15T03:54:28.838Z,3.69
2022-12-15T03:56:55.884Z,5.61
2022-12-15T03:59:22.594Z,3.70
2022-12-15T04:01:49.833Z,2.09
2022-12-15T04:04:16.966Z,1.25
2022-12-15T04:06:43.841Z,1.37
2022-12-15T04:09:10.715Z,1.08
2022-12-15T04:11:39.023Z,0.72
2022-12-15T04:14:06.333Z,0.50
2022-12-15T04:16:33.245Z,0.29
2022-12-15T04:19:00.573Z,1.08
2022-12-15T04:21:27.624Z,2.51
2022-12-15T04:23:54.799Z,1.53
2022-12-15T04:26:21.673Z,0.82
2022-12-15T04:28:50.951Z,0.48
2022-12-15T04:31:22.281Z,0.26
2022-12-15T04:33:52.580Z,0.33
2022-12-15T04:36:19.467Z,0.59
2022-12-15T04:38:50.455Z,1.28
2022-12-15T04:41:19.217Z,2.59
2022-12-15T04:43:45.983Z,1.97
2022-12-15T04:46:17.640Z,1.10
2022-12-15T04:48:44.697Z,0.65
2022-12-15T04:51:13.652Z,0.53
2022-12-15T04:53:42.349Z,0.66
2022-12-15T04:56:18.201Z,0.74
2022-12-15T04:58:45.441Z,0.52
2022-12-15T05:01:17.116Z,0.37
2022-12-15T05:03:44.283Z,0.24
2022-12-15T05:06:12.382Z,0.96
2022-12-15T05:08:40.688Z,2.29
2022-12-15T05:11:07.821Z,1.75
2022-12-15T05:13:35.152Z,1.17
2022-12-15T05:16:02.200Z,1.49
2022-12-15T05:18:30.613Z,1.03
2022-12-15T05:21:01.242Z,0.64
2022-12-15T05:23:28.363Z,0.59
2022-12-15T05:25:55.737Z,0.36
2022-12-15T05:28:24.140Z,0.30
2022-12-15T05:30:51.512Z,0.81
2022-12-15T05:33:18.411Z,1.57
2022-12-15T05:35:46.606Z,1.86
2022-12-15T05:38:14.469Z,1.80
2022-12-15T05:40:42.585Z,1.52
2022-12-15T05:43:11.603Z,1.40
2022-12-15T05:45:38.566Z,0.94
2022-12-15T05:48:06.269Z,0.55
2022-12-15T05:50:33.032Z,0.53
2022-12-15T05:53:01.426Z,0.78
2022-12-15T05:55:29.216Z,0.82
2022-12-15T05:57:56.157Z,0.66
2022-12-15T06:00:23.437Z,0.53
2022-12-15T06:02:50.357Z,0.73
2022-12-15T06:05:17.784Z,0.42
2022-12-15T06:07:44.753Z,0.76
2022-12-15T06:10:13.104Z,0.50
2022-12-15T06:12:40.280Z,0.36
2022-12-15T06:15:08.083Z,3.28
2022-12-15T06:17:34.914Z,3.83
2022-12-15T06:20:01.997Z,3.73
2022-12-15T06:22:31.657Z,2.11
2022-12-15T06:25:00.118Z,1.48
2022-12-15T06:27:28.966Z,4.24
2022-12-15T06:29:57.286Z,5.38
2022-12-15T06:32:24.258Z,4.01
2022-12-15T06:34:51.411Z,3.19
2022-12-15T06:37:19.460Z,2.11
2022-12-15T06:39:46.698Z,1.19
2022-12-15T06:42:13.661Z,0.86
2022-12-15T06:44:41.931Z,3.35
2022-12-15T06:47:09.011Z,2.34
2022-12-15T06:49:36.130Z,1.55
2022-12-15T06:52:05.335Z,0.92
2022-12-15T06:54:32.694Z,0.58
2022-12-15T06:56:59.757Z,0.40
2022-12-15T06:59:26.711Z,0.32
2022-12-15T07:01:55.733Z,0.22
2022-12-15T07:04:23.800Z,0.23
2022-12-15T07:06:54.571Z,0.17
2022-12-15T07:09:21.394Z,0.23
2022-12-15T07:11:49.494Z,0.13
2022-12-15T07:14:16.337Z,0.21
2022-12-15T07:16:43.273Z,8.78
2022-12-15T07:19:14.451Z,5.30
2022-12-15T07:21:41.366Z,3.21
2022-12-15T07:24:12.742Z,2.27
2022-12-15T07:26:42.953Z,1.48
2022-12-15T07:29:11.639Z,1.06
2022-12-15T07:31:43.348Z,1.41
2022-12-15T07:34:13.667Z,1.09
2022-12-15T07:36:49.974Z,0.98
2022-12-15T07:39:19.109Z,0.90
2022-12-15T07:41:47.094Z,1.62
2022-12-15T07:44:14.877Z,2.38
2022-12-15T07:46:42.312Z,3.04
2022-12-15T07:49:10.528Z,2.02
2022-12-15T07:51:39.122Z,2.69
2022-12-15T07:54:09.461Z,4.13
2022-12-15T07:56:39.429Z,5.25
2022-12-15T07:59:07.342Z,3.53
2022-12-15T08:01:35.059Z,2.09
2022-12-15T08:04:01.889Z,9.29
2022-12-15T08:06:28.953Z,12.54
2022-12-15T08:08:57.071Z,8.29
2022-12-15T08:11:24.584Z,13.82
2022-12-15T08:14:10.391Z,9.58
2022-12-15T08:16:39.133Z,5.66
2022-12-15T08:19:07.961Z,3.21
2022-12-15T08:21:34.857Z,1.71
2022-12-15T08:24:03.356Z,2.29
2022-12-15T08:26:31.319Z,4.12
2022-12-15T08:29:24.550Z,5.60
2022-12-15T08:31:48.627Z,4.66
2022-12-15T08:34:15.522Z,3.92
2022-12-15T08:36:42.921Z,3.78
2022-12-15T08:39:11.940Z,3.01
2022-12-15T08:41:39.113Z,2.64
2022-12-15T08:44:08.114Z,4.00
2022-12-15T08:46:36.868Z,5.20
2022-12-15T08:49:05.502Z,3.80
2022-12-15T08:51:33.333Z,2.60
2022-12-15T08:54:01.330Z,1.81
2022-12-15T08:56:30.911Z,1.71
2022-12-15T08:58:59.544Z,1.46
2022-12-15T09:01:28.187Z,0.94
2022-12-15T09:03:56.902Z,1.19
2022-12-15T09:06:26.013Z,1.83
2022-12-15T09:08:58.020Z,2.05
2022-12-15T09:11:32.377Z,1.50
2022-12-15T09:14:01.232Z,1.14
2022-12-15T09:16:28.554Z,0.93
2022-12-15T09:19:00.761Z,0.88
2022-12-15T09:21:29.486Z,0.61
2022-12-15T09:24:00.343Z,0.50
2022-12-15T09:26:30.972Z,0.68
2022-12-15T09:29:07.136Z,1.10
2022-12-15T09:31:41.151Z,0.92
2022-12-15T09:36:43.703Z,0.95
2022-12-15T09:39:10.739Z,2.04
2022-12-15T09:41:40.432Z,1.71
2022-12-15T09:44:13.923Z,1.39
2022-12-15T09:46:53.995Z,1.25
2022-12-15T09:49:34.641Z,1.64
2022-12-15T09:52:10.906Z,1.45
2022-12-15T09:54:39.185Z,1.39
2022-12-15T09:57:15.766Z,1.95
2022-12-15T09:59:57.914Z,3.63
2022-12-15T10:02:59.882Z,8.72
2022-12-15T10:08:30.886Z,8.88
2022-12-15T10:11:01.324Z,8.13
2022-12-15T10:13:38.746Z,8.10
2022-12-15T10:16:26.983Z,6.97
2022-12-15T10:19:19.081Z,5.58
2022-12-15T10:21:50.558Z,4.36
2022-12-15T10:24:51.884Z,3.31
2022-12-15T10:27:25.167Z,3.15
2022-12-15T10:30:00.224Z,2.52
2022-12-15T10:32:42.806Z,2.21
2022-12-15T10:35:14.990Z,2.65
2022-12-15T10:37:42.771Z,4.30
2022-12-15T10:40:15.280Z,4.95
2022-12-15T10:42:47.483Z,5.90
2022-12-15T10:45:33.523Z,5.68
2022-12-15T10:48:02.914Z,5.31
2022-12-15T10:50:30.301Z,7.24
2022-12-15T10:52:57.590Z,6.42
2022-12-15T10:55:33.139Z,6.56
2022-12-15T10:58:01.669Z,5.25
2022-12-15T11:00:32.225Z,5.62
2022-12-15T11:03:00.204Z,6.89
2022-12-15T11:05:28.729Z,5.46
2022-12-15T11:08:13.271Z,4.19
2022-12-15T11:10:50.829Z,4.52
2022-12-15T11:13:19.307Z,4.12
2022-12-15T11:15:50.474Z,3.68
2022-12-15T11:18:33.071Z,4.42
2022-12-15T11:21:08.012Z,3.85
2022-12-15T11:23:51.850Z,4.52
2022-12-15T11:26:40.029Z,3.58
2022-12-15T11:29:16.199Z,4.26
2022-12-15T11:31:45.321Z,4.71
2022-12-15T11:34:19.390Z,5.28
2022-12-15T11:37:06.630Z,4.53
2022-12-15T11:39:48.686Z,5.09
2022-12-15T11:42:22.553Z,5.09
2022-12-15T11:44:59.457Z,4.92
2022-12-15T11:47:40.115Z,4.71
2022-12-15T11:50:19.156Z,4.75
2022-12-15T11:53:15.022Z,4.31
2022-12-15T11:55:50.913Z,3.48
2022-12-15T11:58:44.166Z,2.34
2022-12-15T12:01:23.378Z,2.19
2022-12-15T12:04:01.074Z,2.35
2022-12-15T12:06:38.291Z,2.21
2022-12-15T12:09:22.610Z,3.18
2022-12-15T12:11:56.680Z,2.95
2022-12-15T12:14:39.083Z,3.64
2022-12-15T12:17:11.548Z,3.04
2022-12-15T12:19:50.763Z,3.00
2022-12-15T12:22:26.266Z,3.18
2022-12-15T12:24:59.161Z,4.16
2022-12-15T12:27:36.237Z,3.68
2022-12-15T12:30:05.946Z,3.74
2022-12-15T12:32:43.436Z,3.11
2022-12-15T12:35:31.904Z,2.71
2022-12-15T12:38:03.936Z,2.41
2022-12-15T12:40:44.727Z,2.61
2022-12-15T12:43:22.730Z,2.60
2022-12-15T12:45:55.513Z,2.31
2022-12-15T12:48:29.966Z,2.28
2022-12-15T12:51:19.284Z,2.06
2022-12-15T12:53:48.694Z,3.11
2022-12-15T12:56:37.867Z,3.39
2022-12-15T12:59:34.354Z,2.73
2022-12-15T13:02:43.947Z,2.24
2022-12-15T13:05:30.042Z,3.13
2022-12-15T13:08:14.176Z,3.65
2022-12-15T13:10:43.244Z,3.67
2022-12-15T13:13:38.585Z,4.04
2022-12-15T13:16:11.181Z,3.24
2022-12-15T13:18:59.864Z,3.04
2022-12-15T13:21:54.747Z,3.06
2022-12-15T13:27:14.179Z,4.10
2022-12-15T13:30:03.583Z,4.60
2022-12-15T13:32:34.722Z,6.25
2022-12-15T13:35:21.426Z,5.91
2022-12-15T13:37:51.134Z,5.15
2022-12-15T13:40:32.725Z,5.21
2022-12-15T13:43:08.453Z,5.99
2022-12-15T13:48:41.437Z,7.75
2022-12-15T13:51:28.947Z,6.56
2022-12-15T13:53:59.962Z,6.48
2022-12-15T13:56:45.840Z,6.76
2022-12-15T13:59:20.218Z,5.19
2022-12-15T14:01:52.969Z,5.15
2022-12-15T14:04:21.319Z,7.32
2022-12-15T14:06:52.338Z,6.88
2022-12-15T14:09:28.694Z,13.17
2022-12-15T14:11:56.918Z,8.37
2022-12-15T14:14:28.046Z,5.07
2022-12-15T14:17:01.655Z,2.94
2022-12-15T14:19:38.756Z,2.04
2022-12-15T14:22:23.284Z,3.40
2022-12-15T14:25:03.254Z,4.83
2022-12-15T14:27:32.416Z,6.06
2022-12-15T14:30:19.040Z,5.68
2022-12-15T14:32:52.129Z,6.56
2022-12-15T14:35:26.481Z,6.65
2022-12-15T14:40:28.483Z,7.48
2022-12-15T14:42:56.069Z,7.76
2022-12-15T14:45:27.278Z,9.91
2022-12-15T14:48:30.584Z,10.13
2022-12-15T14:50:47.632Z,9.55
2022-12-15T14:53:19.994Z,11.96
2022-12-15T14:55:46.938Z,11.33
2022-12-15T14:58:29.637Z,11.38
2022-12-15T15:00:57.864Z,10.62
2022-12-15T15:03:06.202Z,10.92
2022-12-15T15:03:13.203Z,6.24
2022-12-15T15:03:35.820Z,11.21
2022-12-15T15:06:07.069Z,9.87
2022-12-15T15:08:37.293Z,8.06
2022-12-15T15:11:22.934Z,9.58
2022-12-15T15:13:54.458Z,10.58
2022-12-15T15:16:24.509Z,10.18
2022-12-15T15:18:55.193Z,9.46
2022-12-15T15:21:25.553Z,10.60
2022-12-15T15:24:00.395Z,11.65
2022-12-15T15:26:28.676Z,12.54
2022-12-15T15:28:56.847Z,12.86
2022-12-15T15:31:28.690Z,11.96
2022-12-15T15:33:57.987Z,12.88
2022-12-15T15:36:30.006Z,12.16
2022-12-15T15:38:58.119Z,10.12
2022-12-15T15:41:28.431Z,10.37
2022-12-15T15:43:55.994Z,9.79
2022-12-15T15:46:25.245Z,8.72
2022-12-15T15:48:55.118Z,8.99
2022-12-15T15:51:24.380Z,8.18
2022-12-15T15:53:51.876Z,11.75
2022-12-15T15:56:19.512Z,10.89
2022-12-15T15:58:47.882Z,11.13
2022-12-15T16:01:14.683Z,9.97
2022-12-15T16:03:42.011Z,68.44
2022-12-15T16:06:16.037Z,47.64
2022-12-15T16:11:12.336Z,29.73
2022-12-15T16:13:39.548Z,20.03
2022-12-15T16:16:16.269Z,14.69
2022-12-15T16:18:43.111Z,12.72
2022-12-15T16:21:12.804Z,12.43
2022-12-15T16:23:40.830Z,12.51
2022-12-15T16:26:14.574Z,10.25
2022-12-15T16:28:41.700Z,8.69
2022-12-15T16:31:14.360Z,9.04
2022-12-15T16:33:41.196Z,8.99
2022-12-15T16:36:13.055Z,7.83
2022-12-15T16:38:40.815Z,8.43
2022-12-15T16:41:15.455Z,9.01
2022-12-15T16:43:47.690Z,10.14
2022-12-15T16:46:17.227Z,12.00
2022-12-15T16:48:44.221Z,10.63
2022-12-15T16:51:25.952Z,10.21
2022-12-15T16:53:52.800Z,8.55
2022-12-15T16:56:22.303Z,8.28
2022-12-15T16:58:57.317Z,10.37
2022-12-15T17:01:31.310Z,9.34
2022-12-15T17:04:01.121Z,8.67
2022-12-15T17:06:29.814Z,8.40
2022-12-15T17:08:57.314Z,9.06
2022-12-15T17:11:26.936Z,8.83
2022-12-15T17:13:56.819Z,9.59
2022-12-15T17:16:26.155Z,10.42
2022-12-15T17:18:53.563Z,12.92
2022-12-15T17:21:26.095Z,11.95
2022-12-15T17:23:56.784Z,11.93
2022-12-15T17:26:29.673Z,13.63
2022-12-15T17:28:59.432Z,13.08
2022-12-15T17:31:30.313Z,10.43
2022-12-15T17:34:23.510Z,10.17
2022-12-15T17:36:51.408Z,10.23
2022-12-15T17:39:22.318Z,10.73
2022-12-15T17:41:59.949Z,8.59
2022-12-15T17:44:34.921Z,11.82
2022-12-15T17:47:03.899Z,10.48
2022-12-15T17:49:35.567Z,10.41
2022-12-15T17:52:06.641Z,8.80
2022-12-15T17:54:34.355Z,9.37
2022-12-15T17:57:02.607Z,9.94
2022-12-15T17:59:30.464Z,10.77
2022-12-15T18:01:57.645Z,11.31
2022-12-15T18:04:25.767Z,10.71
2022-12-15T18:06:58.074Z,11.15
2022-12-15T18:09:28.837Z,11.05
2022-12-15T18:11:55.694Z,10.33
2022-12-15T18:14:26.149Z,10.47
2022-12-15T18:16:53.042Z,10.76
2022-12-15T18:19:21.486Z,11.93
2022-12-15T18:21:48.342Z,10.96
2022-12-15T18:24:17.110Z,10.25
2022-12-15T18:26:45.012Z,9.74
2022-12-15T18:29:13.092Z,9.88
2022-12-15T18:31:42.099Z,10.59
2022-12-15T18:34:12.785Z,11.19
2022-12-15T18:36:39.631Z,10.86
2022-12-15T18:39:17.513Z,10.08
2022-12-15T18:41:44.629Z,11.02
2022-12-15T18:44:19.021Z,10.86
2022-12-15T18:46:48.249Z,11.27
2022-12-15T18:49:15.682Z,9.40
2022-12-15T18:51:42.593Z,8.36
2022-12-15T18:54:16.476Z,7.71
2022-12-15T18:56:43.620Z,8.66
2022-12-15T18:59:12.559Z,8.69
2022-12-15T19:01:40.097Z,10.04
2022-12-15T19:04:08.581Z,9.65
2022-12-15T19:06:35.876Z,8.68
2022-12-15T19:09:03.945Z,9.09
2022-12-15T19:11:31.341Z,9.52
2022-12-15T19:13:58.865Z,8.63
2022-12-15T19:16:26.007Z,8.82
2022-12-15T19:18:52.929Z,8.41
2022-12-15T19:21:24.314Z,8.91
2022-12-15T19:23:51.328Z,8.81
2022-12-15T19:26:19.432Z,8.81
2022-12-15T19:28:46.340Z,8.48
2022-12-15T19:31:13.301Z,8.47
2022-12-15T19:33:40.180Z,8.80
2022-12-15T19:36:15.459Z,10.10
2022-12-15T19:38:45.026Z,10.46
2022-12-15T19:41:15.258Z,9.54
2022-12-15T19:43:42.750Z,9.29
2022-12-15T19:46:18.027Z,9.35
2022-12-15T19:48:50.579Z,8.82
2022-12-15T19:51:21.676Z,8.17
2022-12-15T19:53:50.504Z,8.09
2022-12-15T19:56:20.081Z,8.70
2022-12-15T19:58:47.079Z,9.91
2022-12-15T20:01:16.580Z,9.12
2022-12-15T20:03:45.434Z,9.58
2022-12-15T20:06:14.918Z,10.11
2022-12-15T20:08:43.590Z,9.59
2022-12-15T20:11:16.982Z,8.67
2022-12-15T20:13:44.711Z,7.76
2022-12-15T20:16:12.544Z,9.27
2022-12-15T20:18:39.488Z,8.96
2022-12-15T20:21:09.284Z,9.07
2022-12-15T20:23:48.935Z,11.82
2022-12-15T20:26:17.858Z,11.00
2022-12-15T20:28:44.771Z,9.10
2022-12-15T20:31:14.911Z,9.26
2022-12-15T20:33:43.250Z,10.40
2022-12-15T20:36:13.587Z,11.54
2022-12-15T20:38:40.949Z,10.85
2022-12-15T20:41:19.529Z,10.82
2022-12-15T20:43:46.536Z,9.85
2022-12-15T20:46:16.994Z,10.60
2022-12-15T20:48:44.868Z,11.29
2022-12-15T20:51:18.773Z,10.94
2022-12-15T20:53:45.767Z,10.33
2022-12-15T20:56:12.852Z,9.78
2022-12-15T20:58:41.211Z,10.52
2022-12-15T21:01:17.901Z,10.05
2022-12-15T21:03:45.153Z,10.45
2022-12-15T21:06:12.310Z,9.92
2022-12-15T21:08:39.110Z,11.02
2022-12-15T21:11:14.183Z,9.90
2022-12-15T21:13:42.906Z,9.76
2022-12-15T21:16:15.591Z,9.39
2022-12-15T21:19:19.277Z,9.08
2022-12-15T21:21:32.917Z,9.33
2022-12-15T21:24:01.738Z,10.69
2022-12-15T21:26:29.087Z,12.42
2022-12-15T21:29:01.185Z,11.47
2022-12-15T21:31:28.008Z,10.15
2022-12-15T21:33:54.994Z,9.47
2022-12-15T21:36:22.132Z,9.86
2022-12-15T21:38:52.198Z,10.31
2022-12-15T21:41:22.676Z,9.11
2022-12-15T21:43:50.098Z,9.72
2022-12-15T21:46:24.656Z,9.38
2022-12-15T21:48:55.480Z,10.02
2022-12-15T21:51:22.393Z,10.96
2022-12-15T21:53:49.361Z,10.68
2022-12-15T21:56:18.019Z,10.19
2022-12-15T21:58:45.321Z,9.86
2022-12-15T22:01:13.717Z,10.40
2022-12-15T22:03:44.863Z,10.43
2022-12-15T22:06:18.264Z,9.63
2022-12-15T22:08:45.498Z,11.24
2022-12-15T22:11:18.831Z,10.27
2022-12-15T22:13:45.911Z,9.56
2022-12-15T22:16:13.047Z,10.13
2022-12-15T22:18:39.934Z,10.08
2022-12-15T22:21:09.387Z,10.33
2022-12-15T22:23:37.602Z,9.35
2022-12-15T22:26:06.680Z,10.39
2022-12-15T22:28:33.804Z,9.52
2022-12-15T22:31:03.384Z,9.80
2022-12-15T22:33:30.475Z,8.94
2022-12-15T22:35:57.513Z,8.76
2022-12-15T22:38:25.621Z,7.66
2022-12-15T22:40:54.258Z,5.58
2022-12-15T22:43:26.201Z,4.77
2022-12-15T22:45:55.372Z,4.80
2022-12-15T22:48:25.767Z,4.89
2022-12-15T22:50:54.924Z,5.07
2022-12-15T22:53:21.700Z,5.22
2022-12-15T22:55:50.160Z,5.54
2022-12-15T22:58:24.105Z,7.54
2022-12-15T23:00:51.522Z,7.85
2022-12-15T23:03:19.171Z,8.06
2022-12-15T23:05:46.197Z,7.29
2022-12-15T23:08:13.271Z,7.72
2022-12-15T23:10:40.019Z,7.99
2022-12-15T23:13:10.486Z,8.40
2022-12-15T23:15:37.309Z,8.88
2022-12-15T23:18:09.548Z,8.46
2022-12-15T23:20:36.311Z,8.15
2022-12-15T23:23:03.520Z,7.39
2022-12-15T23:25:30.945Z,8.03
2022-12-15T23:27:57.862Z,7.83
2022-12-15T23:30:26.168Z,7.28
2022-12-15T23:32:55.397Z,6.89
2022-12-15T23:35:22.684Z,5.98
2022-12-15T23:37:49.858Z,6.12
2022-12-15T23:40:17.518Z,5.68
2022-12-15T23:42:44.314Z,6.38
2022-12-15T23:45:11.581Z,6.17
2022-12-15T23:47:39.736Z,6.59
2022-12-15T23:50:07.038Z,6.79
2022-12-15T23:52:34.682Z,6.35
2022-12-15T23:55:01.705Z,7.51
2022-12-15T23:57:28.564Z,7.84
2022-12-15T23:59:55.595Z,8.66
